createdAt,value
2022-11-06T00:02:31.852Z,7.20
2022-11-06T00:05:18.295Z,7.20
2022-11-06T00:07:45.309Z,7.20
2022-11-06T00:10:12.450Z,7.20
2022-11-06T00:12:38.863Z,7.20
2022-11-06T00:15:05.585Z,7.20
2022-11-06T00:17:32.026Z,7.20
2022-11-06T00:19:58.445Z,7.20
2022-11-06T00:22:24.963Z,7.20
2022-11-06T00:24:51.405Z,7.20
2022-11-06T00:27:17.818Z,7.10
2022-11-06T00:29:44.261Z,7.20
2022-11-06T00:32:10.685Z,7.10
2022-11-06T00:34:37.097Z,7.10
2022-11-06T00:37:03.563Z,7.10
2022-11-06T00:39:29.978Z,7.00
2022-11-06T00:41:56.390Z,7.10
2022-11-06T00:44:22.829Z,7.00
2022-11-06T00:46:49.247Z,7.00
2022-11-06T00:49:15.654Z,7.00
2022-11-06T00:51:42.950Z,7.00
2022-11-06T00:54:13.246Z,7.00
2022-11-06T00:56:40.158Z,7.00
2022-11-06T00:59:07.758Z,6.90
2022-11-06T01:01:35.505Z,6.80
2022-11-06T01:04:06.328Z,6.80
2022-11-06T01:06:34.345Z,6.70
2022-11-06T01:09:00.822Z,6.70
2022-11-06T01:11:37.487Z,6.60
2022-11-06T01:14:14.289Z,6.60
2022-11-06T01:16:40.789Z,6.60
2022-11-06T01:19:07.458Z,6.50
2022-11-06T01:21:38.645Z,6.40
2022-11-06T01:24:11.125Z,6.40
2022-11-06T01:26:40.731Z,6.30
2022-11-06T01:29:16.581Z,6.30
2022-11-06T01:31:43.368Z,6.30
2022-11-06T01:34:10.988Z,6.20
2022-11-06T01:36:37.593Z,6.20
2022-11-06T01:39:05.228Z,6.20
2022-11-06T01:41:33.465Z,6.10
2022-11-06T01:44:01.811Z,6.10
2022-11-06T01:46:29.419Z,6.00
2022-11-06T01:49:03.525Z,6.00
2022-11-06T01:51:31.590Z,6.00
2022-11-06T01:53:58.306Z,5.90
2022-11-06T01:56:24.880Z,5.90
2022-11-06T01:58:53.407Z,5.80
2022-11-06T02:01:20.093Z,5.70
2022-11-06T02:03:53.224Z,5.80
2022-11-06T02:06:19.852Z,5.80
2022-11-06T02:08:46.687Z,5.80
2022-11-06T02:11:13.209Z,5.90
2022-11-06T02:13:45.622Z,5.90
2022-11-06T02:16:16.359Z,6.00
2022-11-06T02:18:52.291Z,6.00
2022-11-06T02:21:37.653Z,6.10
2022-11-06T02:24:13.808Z,6.10
2022-11-06T02:26:46.353Z,6.20
2022-11-06T02:29:17.027Z,6.20
2022-11-06T02:31:44.545Z,6.20
2022-11-06T02:34:15.314Z,6.30
2022-11-06T02:36:51.693Z,6.30
2022-11-06T02:39:19.531Z,6.30
2022-11-06T02:41:46.917Z,6.40
2022-11-06T02:44:18.518Z,6.40
2022-11-06T02:46:49.128Z,6.40
2022-11-06T02:49:19.036Z,6.50
2022-11-06T02:51:48.016Z,6.50
2022-11-06T02:54:15.510Z,6.50
2022-11-06T02:56:44.375Z,6.50
2022-11-06T02:59:29.407Z,6.60
2022-11-06T03:01:58.231Z,6.50
2022-11-06T03:04:27.401Z,6.50
2022-11-06T03:07:11.527Z,6.50
2022-11-06T03:09:37.970Z,6.50
2022-11-06T03:12:09.720Z,6.50
2022-11-06T03:14:39.570Z,6.50
2022-11-06T03:17:11.695Z,6.50
2022-11-06T03:20:10.885Z,6.50
2022-11-06T03:22:41.680Z,6.50
2022-11-06T03:25:17.546Z,6.60
2022-11-06T03:28:03.098Z,6.50
2022-11-06T03:30:29.785Z,6.60
2022-11-06T03:33:02.873Z,6.60
2022-11-06T03:35:35.733Z,6.60
2022-11-06T03:38:04.911Z,6.60
2022-11-06T03:40:32.976Z,6.50
2022-11-06T03:43:01.971Z,6.50
2022-11-06T03:45:29.565Z,6.50
2022-11-06T03:48:02.190Z,6.50
2022-11-06T03:50:37.774Z,6.40
2022-11-06T03:53:11.924Z,6.40
2022-11-06T03:55:44.002Z,6.30
2022-11-06T03:58:16.729Z,6.20
2022-11-06T04:00:44.301Z,6.10
2022-11-06T04:03:15.622Z,6.10
2022-11-06T04:05:45.851Z,6.00
2022-11-06T04:08:32.941Z,5.90
2022-11-06T04:11:19.755Z,5.90
2022-11-06T04:14:01.781Z,5.80
2022-11-06T04:16:33.895Z,5.80
2022-11-06T04:19:00.351Z,5.70
2022-11-06T04:21:35.689Z,5.70
2022-11-06T04:24:40.827Z,5.70
2022-11-06T04:27:13.316Z,5.60
2022-11-06T04:30:03.150Z,5.50
2022-11-06T04:32:35.830Z,5.50
2022-11-06T04:35:14.235Z,5.50
2022-11-06T04:37:54.429Z,5.40
2022-11-06T04:40:24.924Z,5.40
2022-11-06T04:42:57.454Z,5.30
2022-11-06T04:45:25.557Z,5.30
2022-11-06T04:47:53.254Z,5.20
2022-11-06T04:50:20.648Z,5.20
2022-11-06T04:52:48.142Z,5.20
2022-11-06T04:55:14.609Z,5.20
2022-11-06T04:57:41.031Z,5.20
2022-11-06T05:00:07.748Z,5.20
2022-11-06T05:02:34.172Z,5.20
2022-11-06T05:05:00.621Z,5.20
2022-11-06T05:07:27.074Z,5.20
2022-11-06T05:09:53.558Z,5.20
2022-11-06T05:12:19.994Z,5.20
2022-11-06T05:14:46.784Z,5.20
2022-11-06T05:17:13.326Z,5.20
2022-11-06T05:19:39.718Z,5.10
2022-11-06T05:22:24.870Z,5.10
2022-11-06T05:24:51.304Z,5.10
2022-11-06T05:27:17.817Z,5.10
2022-11-06T05:29:44.433Z,5.10
2022-11-06T05:32:11.042Z,5.10
2022-11-06T05:34:37.525Z,5.00
2022-11-06T05:37:03.967Z,5.00
2022-11-06T05:39:30.562Z,5.00
2022-11-06T05:41:56.974Z,5.00
2022-11-06T05:44:23.461Z,5.00
2022-11-06T05:46:50.475Z,4.90
2022-11-06T05:49:18.086Z,4.90
2022-11-06T05:51:44.586Z,4.80
2022-11-06T05:54:11.031Z,4.80
2022-11-06T05:56:37.453Z,4.80
2022-11-06T05:59:03.851Z,4.80
2022-11-06T06:01:30.340Z,4.80
2022-11-06T06:03:56.918Z,4.80
2022-11-06T06:06:23.444Z,4.80
2022-11-06T06:08:49.868Z,4.80
2022-11-06T06:11:16.291Z,4.70
2022-11-06T06:13:42.777Z,4.70
2022-11-06T06:16:14.255Z,4.70
2022-11-06T06:18:40.879Z,4.60
2022-11-06T06:21:07.277Z,4.60
2022-11-06T06:23:33.685Z,4.70
2022-11-06T06:26:00.161Z,4.60
2022-11-06T06:28:26.669Z,4.60
2022-11-06T06:30:57.212Z,4.70
2022-11-06T06:33:26.754Z,4.70
2022-11-06T06:35:53.156Z,4.70
2022-11-06T06:38:19.938Z,4.70
2022-11-06T06:40:46.346Z,4.70
2022-11-06T06:43:12.848Z,4.70
2022-11-06T06:45:39.478Z,4.80
2022-11-06T06:48:06.174Z,4.90
2022-11-06T06:50:32.714Z,5.10
2022-11-06T06:52:59.360Z,5.20
2022-11-06T06:55:26.073Z,5.50
2022-11-06T06:57:59.344Z,5.70
2022-11-06T07:00:26.181Z,6.00
2022-11-06T07:02:52.801Z,6.30
2022-11-06T07:05:19.595Z,6.70
2022-11-06T07:07:46.357Z,6.90
2022-11-06T07:10:12.998Z,7.40
2022-11-06T07:12:39.471Z,7.80
2022-11-06T07:15:06.253Z,8.00
2022-11-06T07:17:32.728Z,8.10
2022-11-06T07:19:59.227Z,8.60
2022-11-06T07:22:35.346Z,9.50
2022-11-06T07:25:04.138Z,10.40
2022-11-06T07:27:30.590Z,10.70
2022-11-06T07:29:57.214Z,10.50
2022-11-06T07:32:23.633Z,10.00
2022-11-06T07:34:50.259Z,9.80
2022-11-06T07:37:16.686Z,9.50
2022-11-06T07:39:43.278Z,9.60
2022-11-06T07:42:09.721Z,10.10
2022-11-06T07:44:36.139Z,10.50
2022-11-06T07:47:02.768Z,10.90
2022-11-06T07:49:29.201Z,11.10
2022-11-06T07:51:55.649Z,11.30
2022-11-06T07:54:22.060Z,11.50
2022-11-06T07:56:48.520Z,12.00
2022-11-06T07:59:15.003Z,12.80
2022-11-06T08:01:41.566Z,13.80
2022-11-06T08:04:08.136Z,14.00
2022-11-06T08:06:34.623Z,13.40
2022-11-06T08:09:04.398Z,13.00
2022-11-06T08:11:30.823Z,12.60
2022-11-06T08:13:59.395Z,12.10
2022-11-06T08:16:26.006Z,11.70
2022-11-06T08:18:52.557Z,11.40
2022-11-06T08:21:19.031Z,11.60
2022-11-06T08:23:45.635Z,12.60
2022-11-06T08:26:12.460Z,14.70
2022-11-06T08:28:38.874Z,16.60
2022-11-06T08:31:06.199Z,18.90
2022-11-06T08:33:32.887Z,20.30
2022-11-06T08:36:03.214Z,21.50
2022-11-06T08:38:29.750Z,22.80
2022-11-06T08:40:56.171Z,23.70
2022-11-06T08:43:27.273Z,24.20
2022-11-06T08:45:53.880Z,24.10
2022-11-06T08:48:20.384Z,23.70
2022-11-06T08:50:46.786Z,23.90
2022-11-06T08:53:13.582Z,24.60
2022-11-06T08:55:40.361Z,25.10
2022-11-06T08:58:07.246Z,26.00
2022-11-06T09:00:35.734Z,26.50
2022-11-06T09:03:06.970Z,26.60
2022-11-06T09:05:33.575Z,26.60
2022-11-06T09:07:59.997Z,26.50
2022-11-06T09:10:27.237Z,26.40
2022-11-06T09:12:53.721Z,26.40
2022-11-06T09:15:20.128Z,25.90
2022-11-06T09:17:47.727Z,25.50
2022-11-06T09:20:15.210Z,25.90
2022-11-06T09:22:41.653Z,26.20
2022-11-06T09:25:08.515Z,27.00
2022-11-06T09:27:41.273Z,27.60
2022-11-06T09:30:08.101Z,27.20
2022-11-06T09:32:34.582Z,27.70
2022-11-06T09:35:00.991Z,28.00
2022-11-06T09:37:27.455Z,28.10
2022-11-06T09:39:53.935Z,27.50
2022-11-06T09:42:38.247Z,27.80
2022-11-06T09:45:08.574Z,28.40
2022-11-06T09:47:37.382Z,28.90
2022-11-06T09:50:06.258Z,28.80
2022-11-06T09:52:38.559Z,28.70
2022-11-06T09:55:16.945Z,28.30
2022-11-06T09:57:46.489Z,28.00
2022-11-06T10:00:14.248Z,27.60
2022-11-06T10:02:43.413Z,27.10
2022-11-06T10:05:12.735Z,25.90
2022-11-06T10:07:40.615Z,26.50
2022-11-06T10:10:11.739Z,26.90
2022-11-06T10:12:53.263Z,27.50
2022-11-06T10:15:23.290Z,28.20
2022-11-06T10:17:59.082Z,28.10
2022-11-06T10:20:34.478Z,27.90
2022-11-06T10:23:00.930Z,28.10
2022-11-06T10:25:37.830Z,28.50
2022-11-06T10:28:14.948Z,28.40
2022-11-06T10:30:53.790Z,28.60
2022-11-06T10:33:24.894Z,29.10
2022-11-06T10:36:00.112Z,29.40
2022-11-06T10:38:34.581Z,29.50
2022-11-06T10:41:01.239Z,29.00
2022-11-06T10:43:27.687Z,28.50
2022-11-06T10:45:58.867Z,28.50
2022-11-06T10:48:41.400Z,28.40
2022-11-06T10:51:16.719Z,28.50
2022-11-06T10:54:01.270Z,28.60
2022-11-06T10:56:34.516Z,28.40
2022-11-06T10:59:01.209Z,28.50
2022-11-06T11:01:28.319Z,28.90
2022-11-06T11:03:55.030Z,29.20
2022-11-06T11:06:21.447Z,29.40
2022-11-06T11:08:48.971Z,29.60
2022-11-06T11:11:18.240Z,29.60
2022-11-06T11:13:44.628Z,29.50
2022-11-06T11:16:15.713Z,29.00
2022-11-06T11:18:42.193Z,28.90
2022-11-06T11:21:23.990Z,28.40
2022-11-06T11:24:05.574Z,28.30
2022-11-06T11:26:33.667Z,28.10
2022-11-06T11:29:12.203Z,28.00
2022-11-06T11:31:38.770Z,27.60
2022-11-06T11:34:07.365Z,27.70
2022-11-06T11:36:52.883Z,27.90
2022-11-06T11:39:20.611Z,27.50
2022-11-06T11:41:47.047Z,26.90
2022-11-06T11:44:15.238Z,26.10
2022-11-06T11:46:51.351Z,24.60
2022-11-06T11:49:28.579Z,23.30
2022-11-06T11:51:55.838Z,22.00
2022-11-06T11:54:26.134Z,20.70
2022-11-06T11:57:09.573Z,19.90
2022-11-06T11:59:47.205Z,19.50
2022-11-06T12:02:13.729Z,18.90
2022-11-06T12:04:41.831Z,18.30
2022-11-06T12:07:21.954Z,17.80
2022-11-06T12:09:48.490Z,17.70
2022-11-06T12:12:26.013Z,17.20
2022-11-06T12:15:03.941Z,16.70
2022-11-06T12:17:30.882Z,16.10
2022-11-06T12:19:58.017Z,15.60
2022-11-06T12:22:27.764Z,15.10
2022-11-06T12:25:13.232Z,14.70
2022-11-06T12:27:45.216Z,14.40
2022-11-06T12:30:13.203Z,14.40
2022-11-06T12:32:45.860Z,14.40
2022-11-06T12:35:27.485Z,14.30
2022-11-06T12:38:00.024Z,14.20
2022-11-06T12:40:30.763Z,14.10
2022-11-06T12:43:06.589Z,14.00
2022-11-06T12:45:43.697Z,13.90
2022-11-06T12:48:22.214Z,14.10
2022-11-06T12:50:57.270Z,14.00
2022-11-06T12:53:47.635Z,14.10
2022-11-06T12:56:18.153Z,13.90
2022-11-06T12:58:50.500Z,14.00
2022-11-06T13:01:22.490Z,14.10
2022-11-06T13:03:52.063Z,14.10
2022-11-06T13:06:27.818Z,13.90
2022-11-06T13:09:09.586Z,13.90
2022-11-06T13:11:42.301Z,13.80
2022-11-06T13:14:18.184Z,13.50
2022-11-06T13:16:54.794Z,13.50
2022-11-06T13:19:21.358Z,13.50
2022-11-06T13:21:50.869Z,13.30
2022-11-06T13:24:27.525Z,13.20
2022-11-06T13:26:59.379Z,13.00
2022-11-06T13:29:26.608Z,13.00
2022-11-06T13:32:01.586Z,13.00
2022-11-06T13:34:30.337Z,13.00
2022-11-06T13:36:57.681Z,13.10
2022-11-06T13:39:24.141Z,13.10
2022-11-06T13:41:52.283Z,13.20
2022-11-06T13:44:19.888Z,13.20
2022-11-06T13:46:54.205Z,13.30
2022-11-06T13:49:20.599Z,13.40
2022-11-06T13:51:55.137Z,13.30
2022-11-06T13:54:26.352Z,13.30
2022-11-06T13:56:55.862Z,13.30
2022-11-06T13:59:41.297Z,13.20
2022-11-06T14:02:19.858Z,13.00
2022-11-06T14:05:11.286Z,12.90
2022-11-06T14:07:38.190Z,12.90
2022-11-06T14:10:05.245Z,12.70
2022-11-06T14:12:31.740Z,12.60
2022-11-06T14:15:17.178Z,12.60
2022-11-06T14:17:53.378Z,12.60
2022-11-06T14:20:28.721Z,12.50
2022-11-06T14:22:55.131Z,12.60
2022-11-06T14:25:27.319Z,12.50
2022-11-06T14:27:54.129Z,12.40
2022-11-06T14:30:50.178Z,12.40
2022-11-06T14:33:49.242Z,12.40
2022-11-06T14:36:24.886Z,12.30
2022-11-06T14:38:54.630Z,12.30
2022-11-06T14:41:36.292Z,12.20
2022-11-06T14:44:14.961Z,12.10
2022-11-06T14:46:48.899Z,12.10
2022-11-06T14:49:35.444Z,12.00
2022-11-06T14:52:04.251Z,12.00
2022-11-06T14:54:33.271Z,12.00
2022-11-06T14:56:59.878Z,12.00
2022-11-06T14:59:36.982Z,12.00
2022-11-06T15:02:11.941Z,11.90
2022-11-06T15:04:42.576Z,11.90
2022-11-06T15:07:44.757Z,11.90
2022-11-06T15:10:30.253Z,11.80
2022-11-06T15:13:03.638Z,11.80
2022-11-06T15:15:30.618Z,11.70
2022-11-06T15:18:00.197Z,11.50
2022-11-06T15:20:28.257Z,11.50
2022-11-06T15:23:00.869Z,11.40
2022-11-06T15:25:27.921Z,11.40
2022-11-06T15:28:04.813Z,11.30
2022-11-06T15:30:33.633Z,11.20
2022-11-06T15:33:02.063Z,11.20
2022-11-06T15:35:31.188Z,11.20
2022-11-06T15:38:03.230Z,11.10
2022-11-06T15:40:31.424Z,11.10
2022-11-06T15:43:00.140Z,11.00
2022-11-06T15:45:27.537Z,11.00
2022-11-06T15:48:01.602Z,11.00
2022-11-06T15:50:28.130Z,11.00
2022-11-06T15:52:54.635Z,10.90
2022-11-06T15:55:29.074Z,10.90
2022-11-06T15:58:05.064Z,10.90
2022-11-06T16:00:33.203Z,10.80
2022-11-06T16:03:00.726Z,10.70
2022-11-06T16:05:28.441Z,10.70
2022-11-06T16:07:56.109Z,10.60
2022-11-06T16:10:23.104Z,10.70
2022-11-06T16:12:50.344Z,10.60
2022-11-06T16:15:35.662Z,10.60
2022-11-06T16:18:05.859Z,10.70
2022-11-06T16:20:32.306Z,10.60
2022-11-06T16:23:02.517Z,10.60
2022-11-06T16:25:28.947Z,10.60
2022-11-06T16:27:55.370Z,10.60
2022-11-06T16:30:25.358Z,10.60
2022-11-06T16:32:52.382Z,10.60
2022-11-06T16:35:32.427Z,10.60
2022-11-06T16:38:39.711Z,10.50
2022-11-06T16:41:03.936Z,10.50
2022-11-06T16:43:30.447Z,10.50
2022-11-06T16:45:58.646Z,10.40
2022-11-06T16:48:27.017Z,10.40
2022-11-06T16:50:55.268Z,10.40
2022-11-06T16:53:23.459Z,10.40
2022-11-06T16:55:52.578Z,10.40
2022-11-06T16:58:19.052Z,10.40
2022-11-06T17:00:45.566Z,10.40
2022-11-06T17:03:19.670Z,10.30
2022-11-06T17:05:56.426Z,10.30
2022-11-06T17:08:22.826Z,10.40
2022-11-06T17:10:50.658Z,10.40
2022-11-06T17:13:17.240Z,10.40
2022-11-06T17:15:45.097Z,10.40
2022-11-06T17:18:14.323Z,10.40
2022-11-06T17:20:40.826Z,10.40
2022-11-06T17:23:14.958Z,10.40
2022-11-06T17:26:03.334Z,10.40
2022-11-06T17:28:29.803Z,10.30
2022-11-06T17:30:56.332Z,10.30
2022-11-06T17:33:22.737Z,10.30
2022-11-06T17:35:49.638Z,10.30
2022-11-06T17:38:16.881Z,10.30
2022-11-06T17:40:44.023Z,10.20
2022-11-06T17:43:11.132Z,10.10
2022-11-06T17:45:38.878Z,10.10
2022-11-06T17:48:05.469Z,9.90
2022-11-06T17:50:51.876Z,9.80
2022-11-06T17:53:18.317Z,9.70
2022-11-06T17:55:44.715Z,9.60
2022-11-06T17:58:11.483Z,9.50
2022-11-06T18:00:38.224Z,9.50
2022-11-06T18:03:04.700Z,9.40
2022-11-06T18:05:31.320Z,9.30
2022-11-06T18:07:57.757Z,9.30
2022-11-06T18:10:29.139Z,9.30
2022-11-06T18:12:56.944Z,9.20
2022-11-06T18:15:23.357Z,9.20
2022-11-06T18:17:49.888Z,9.10
2022-11-06T18:20:16.470Z,9.10
2022-11-06T18:22:42.880Z,9.10
2022-11-06T18:25:09.501Z,9.10
2022-11-06T18:27:36.125Z,9.10
2022-11-06T18:30:02.705Z,9.10
2022-11-06T18:32:29.160Z,9.10
2022-11-06T18:34:55.670Z,9.10
2022-11-06T18:37:25.466Z,9.10
2022-11-06T18:39:51.967Z,9.10
2022-11-06T18:42:18.386Z,9.10
2022-11-06T18:44:44.850Z,9.10
2022-11-06T18:47:11.266Z,9.10
2022-11-06T18:49:37.684Z,9.10
2022-11-06T18:52:04.110Z,9.10
2022-11-06T18:54:30.523Z,9.10
2022-11-06T18:56:56.975Z,9.10
2022-11-06T18:59:24.140Z,9.10
2022-11-06T19:01:50.672Z,9.10
2022-11-06T19:04:23.671Z,9.10
2022-11-06T19:06:56.437Z,9.10
2022-11-06T19:10:12.362Z,9.10
2022-11-06T19:12:41.149Z,9.10
2022-11-06T19:15:13.630Z,9.10
2022-11-06T19:17:40.128Z,9.10
2022-11-06T19:20:08.563Z,9.10
2022-11-06T19:22:37.276Z,9.10
2022-11-06T19:25:04.097Z,9.10
2022-11-06T19:27:30.656Z,9.10
2022-11-06T19:29:57.183Z,9.20
2022-11-06T19:32:23.603Z,9.20
2022-11-06T19:34:50.036Z,9.30
2022-11-06T19:37:16.486Z,9.30
2022-11-06T19:39:42.882Z,9.30
2022-11-06T19:42:09.425Z,9.40
2022-11-06T19:44:35.889Z,9.50
2022-11-06T19:47:02.327Z,9.50
2022-11-06T19:49:29.138Z,9.50
2022-11-06T19:51:55.626Z,9.50
2022-11-06T19:54:22.078Z,9.60
2022-11-06T19:57:27.620Z,9.60
2022-11-06T19:59:36.266Z,9.50
2022-11-06T20:02:02.886Z,9.50
2022-11-06T20:04:29.456Z,9.40
2022-11-06T20:06:55.865Z,9.50
2022-11-06T20:09:22.284Z,9.50
2022-11-06T20:11:48.694Z,9.60
2022-11-06T20:14:18.485Z,9.60
2022-11-06T20:16:44.957Z,9.60
2022-11-06T20:19:12.160Z,9.70
2022-11-06T20:21:38.579Z,9.70
2022-11-06T20:24:05.172Z,9.70
2022-11-06T20:26:31.646Z,9.60
2022-11-06T20:28:58.050Z,9.60
2022-11-06T20:31:24.695Z,9.60
2022-11-06T20:33:51.903Z,9.50
2022-11-06T20:36:23.135Z,9.50
2022-11-06T20:38:50.028Z,9.40
2022-11-06T20:41:16.889Z,9.50
2022-11-06T20:43:43.763Z,9.50
2022-11-06T20:46:11.167Z,9.50
2022-11-06T20:48:37.720Z,9.50
2022-11-06T20:51:08.724Z,9.60
2022-11-06T20:53:35.614Z,9.60
2022-11-06T20:56:03.930Z,9.60
2022-11-06T20:58:30.778Z,9.60
2022-11-06T21:01:01.374Z,9.60
2022-11-06T21:03:27.840Z,9.70
2022-11-06T21:05:54.328Z,9.70
2022-11-06T21:08:20.727Z,9.70
2022-11-06T21:10:58.904Z,9.70
2022-11-06T21:13:28.845Z,9.70
2022-11-06T21:15:58.221Z,9.70
2022-11-06T21:18:24.954Z,9.70
2022-11-06T21:20:51.527Z,9.70
2022-11-06T21:23:18.095Z,9.70
2022-11-06T21:25:45.473Z,9.70
2022-11-06T21:28:12.306Z,9.70
2022-11-06T21:30:42.794Z,9.70
2022-11-06T21:33:09.193Z,9.80
2022-11-06T21:35:35.962Z,9.80
2022-11-06T21:38:02.405Z,9.80
2022-11-06T21:40:28.958Z,9.80
2022-11-06T21:42:55.529Z,9.80
2022-11-06T21:45:21.974Z,9.70
2022-11-06T21:47:48.420Z,9.70
2022-11-06T21:50:15.594Z,9.70
2022-11-06T21:53:00.911Z,9.70
2022-11-06T21:55:49.958Z,9.70
2022-11-06T21:58:19.269Z,9.70
2022-11-06T22:00:45.679Z,9.70
2022-11-06T22:03:12.498Z,9.70
2022-11-06T22:05:39.545Z,9.70
2022-11-06T22:08:06.391Z,9.70
2022-11-06T22:10:32.832Z,9.70
2022-11-06T22:12:59.271Z,9.70
2022-11-06T22:15:25.815Z,9.70
2022-11-06T22:17:52.237Z,9.70
2022-11-06T22:20:18.713Z,9.70
2022-11-06T22:22:45.155Z,9.70
2022-11-06T22:25:12.181Z,9.70
2022-11-06T22:27:41.081Z,9.60
2022-11-06T22:30:08.038Z,9.70
2022-11-06T22:32:34.435Z,9.60
2022-11-06T22:35:00.878Z,9.70
2022-11-06T22:37:27.312Z,9.60
2022-11-06T22:39:53.768Z,9.60
2022-11-06T22:42:20.401Z,9.60
2022-11-06T22:44:47.023Z,9.70
2022-11-06T22:47:13.531Z,9.60
2022-11-06T22:49:39.948Z,9.60
2022-11-06T22:52:06.345Z,9.60
2022-11-06T22:54:32.890Z,9.60
2022-11-06T22:56:59.286Z,9.60
2022-11-06T22:59:25.803Z,9.60
2022-11-06T23:01:52.287Z,9.50
2022-11-06T23:04:18.816Z,9.60
2022-11-06T23:06:45.567Z,9.60
2022-11-06T23:09:12.126Z,9.60
2022-11-06T23:11:38.830Z,9.60
2022-11-06T23:14:08.855Z,9.60
2022-11-06T23:16:55.535Z,9.60
2022-11-06T23:19:22.391Z,9.60
2022-11-06T23:21:49.101Z,9.60
2022-11-06T23:24:15.542Z,9.60
2022-11-06T23:26:43.109Z,9.60
2022-11-06T23:29:09.561Z,9.60
2022-11-06T23:31:36.176Z,9.60
2022-11-06T23:34:02.683Z,9.60
2022-11-06T23:36:29.082Z,9.60
2022-11-06T23:38:55.509Z,9.60
2022-11-06T23:41:40.799Z,9.60
2022-11-06T23:44:27.298Z,9.60
2022-11-06T23:46:53.719Z,9.60
2022-11-06T23:49:20.160Z,9.60
2022-11-06T23:51:46.659Z,9.60
2022-11-06T23:54:16.263Z,9.60
2022-11-06T23:56:43.848Z,9.60
2022-11-06T23:59:10.821Z,9.60
